sensor_id;sensor_type;location;lat;lon;timestamp;pressure;altitude;pressure_sealevel;temperature;humidity
76166;BME280;65085;46.718;20.136;2022-11-15T00:00:34;101313.00;;;3.72;89.39
76166;BME280;65085;46.718;20.136;2022-11-15T00:03:55;101311.56;;;3.74;89.53
76166;BME280;65085;46.718;20.136;2022-11-15T00:07:16;101321.91;;;3.37;91.76
76166;BME280;65085;46.718;20.136;2022-11-15T00:10:59;101323.88;;;3.45;91.20
76166;BME280;65085;46.718;20.136;2022-11-15T00:14:22;101315.25;;;3.56;90.57
76166;BME280;65085;46.718;20.136;2022-11-15T00:17:43;101310.97;;;3.55;90.66
76166;BME280;65085;46.718;20.136;2022-11-15T00:21:06;101315.50;;;3.68;90.16
76166;BME280;65085;46.718;20.136;2022-11-15T00:24:27;101318.13;;;3.60;90.09
76166;BME280;65085;46.718;20.136;2022-11-15T00:27:48;101308.69;;;3.71;89.96
76166;BME280;65085;46.718;20.136;2022-11-15T00:31:13;101307.72;;;3.67;90.07
76166;BME280;65085;46.718;20.136;2022-11-15T00:34:33;101307.34;;;3.51;90.76
76166;BME280;65085;46.718;20.136;2022-11-15T00:37:54;101302.56;;;3.79;89.47
76166;BME280;65085;46.718;20.136;2022-11-15T00:41:16;101299.56;;;3.72;89.93
76166;BME280;65085;46.718;20.136;2022-11-15T00:44:37;101280.03;;;3.58;89.94
76166;BME280;65085;46.718;20.136;2022-11-15T00:47:59;101284.38;;;3.76;89.84
76166;BME280;65085;46.718;20.136;2022-11-15T00:51:21;101276.25;;;3.59;90.20
76166;BME280;65085;46.718;20.136;2022-11-15T00:54:42;101274.78;;;3.53;90.31
76166;BME280;65085;46.718;20.136;2022-11-15T00:58:03;101271.72;;;3.46;90.60
76166;BME280;65085;46.718;20.136;2022-11-15T01:01:24;101269.00;;;3.59;90.24
76166;BME280;65085;46.718;20.136;2022-11-15T01:04:46;101258.94;;;3.73;89.88
76166;BME280;65085;46.718;20.136;2022-11-15T01:08:12;101256.97;;;3.57;90.52
76166;BME280;65085;46.718;20.136;2022-11-15T01:11:33;101253.34;;;3.61;90.89
76166;BME280;65085;46.718;20.136;2022-11-15T01:14:53;101255.09;;;3.66;90.46
76166;BME280;65085;46.718;20.136;2022-11-15T01:18:14;101253.44;;;3.78;90.33
76166;BME280;65085;46.718;20.136;2022-11-15T01:21:37;101246.66;;;3.81;90.35
76166;BME280;65085;46.718;20.136;2022-11-15T01:24:58;101233.34;;;3.76;90.87
76166;BME280;65085;46.718;20.136;2022-11-15T01:28:19;101235.75;;;3.86;90.92
76166;BME280;65085;46.718;20.136;2022-11-15T01:31:40;101244.47;;;3.91;90.98
76166;BME280;65085;46.718;20.136;2022-11-15T01:35:01;101238.34;;;3.99;90.49
76166;BME280;65085;46.718;20.136;2022-11-15T01:38:23;101238.81;;;4.01;90.85
76166;BME280;65085;46.718;20.136;2022-11-15T01:41:44;101238.00;;;4.01;90.77
76166;BME280;65085;46.718;20.136;2022-11-15T01:45:07;101231.91;;;4.17;90.76
76166;BME280;65085;46.718;20.136;2022-11-15T01:48:34;101231.44;;;4.24;90.57
76166;BME280;65085;46.718;20.136;2022-11-15T01:51:56;101241.59;;;4.35;89.91
76166;BME280;65085;46.718;20.136;2022-11-15T01:55:21;101245.25;;;4.39;89.62
76166;BME280;65085;46.718;20.136;2022-11-15T01:58:43;101238.25;;;4.30;90.25
76166;BME280;65085;46.718;20.136;2022-11-15T02:02:06;101239.03;;;4.30;90.32
76166;BME280;65085;46.718;20.136;2022-11-15T02:05:27;101237.66;;;4.41;90.15
76166;BME280;65085;46.718;20.136;2022-11-15T02:08:49;101231.78;;;4.48;89.61
76166;BME280;65085;46.718;20.136;2022-11-15T02:12:14;101223.09;;;4.51;89.78
76166;BME280;65085;46.718;20.136;2022-11-15T02:15:46;101220.09;;;4.44;89.86
76166;BME280;65085;46.718;20.136;2022-11-15T02:19:29;101218.19;;;4.53;89.40
76166;BME280;65085;46.718;20.136;2022-11-15T02:30:52;101226.75;;;4.72;88.71
76166;BME280;65085;46.718;20.136;2022-11-15T02:34:22;101222.00;;;4.69;88.87
76166;BME280;65085;46.718;20.136;2022-11-15T02:37:52;101228.66;;;4.71;88.72
76166;BME280;65085;46.718;20.136;2022-11-15T02:41:21;101224.03;;;4.46;90.05
76166;BME280;65085;46.718;20.136;2022-11-15T02:44:46;101228.63;;;4.54;89.80
76166;BME280;65085;46.718;20.136;2022-11-15T02:48:10;101233.69;;;4.56;89.91
76166;BME280;65085;46.718;20.136;2022-11-15T02:51:33;101226.25;;;4.61;89.91
76166;BME280;65085;46.718;20.136;2022-11-15T02:54:55;101223.72;;;4.48;90.66
76166;BME280;65085;46.718;20.136;2022-11-15T02:58:35;101222.47;;;4.54;90.09
76166;BME280;65085;46.718;20.136;2022-11-15T03:02:13;101219.31;;;4.69;89.74
76166;BME280;65085;46.718;20.136;2022-11-15T03:05:43;101223.91;;;4.68;89.42
76166;BME280;65085;46.718;20.136;2022-11-15T03:09:10;101222.00;;;4.69;89.33
76166;BME280;65085;46.718;20.136;2022-11-15T03:12:36;101220.88;;;4.78;89.56
76166;BME280;65085;46.718;20.136;2022-11-15T03:16:04;101220.25;;;4.73;89.77
76166;BME280;65085;46.718;20.136;2022-11-15T03:19:32;101219.81;;;4.79;89.48
76166;BME280;65085;46.718;20.136;2022-11-15T03:23:00;101212.66;;;4.92;88.92
76166;BME280;65085;46.718;20.136;2022-11-15T03:26:25;101214.25;;;4.93;88.76
76166;BME280;65085;46.718;20.136;2022-11-15T03:29:49;101210.13;;;4.87;89.10
76166;BME280;65085;46.718;20.136;2022-11-15T03:33:13;101211.38;;;4.81;89.76
76166;BME280;65085;46.718;20.136;2022-11-15T03:36:34;101208.06;;;5.01;88.51
76166;BME280;65085;46.718;20.136;2022-11-15T03:39:57;101199.50;;;4.82;89.69
76166;BME280;65085;46.718;20.136;2022-11-15T03:43:26;101196.34;;;4.88;89.17
76166;BME280;65085;46.718;20.136;2022-11-15T03:46:57;101186.22;;;4.94;89.37
76166;BME280;65085;46.718;20.136;2022-11-15T03:50:21;101190.47;;;4.95;89.21
76166;BME280;65085;46.718;20.136;2022-11-15T03:53:43;101188.72;;;4.99;88.58
76166;BME280;65085;46.718;20.136;2022-11-15T03:57:05;101187.31;;;4.93;89.23
76166;BME280;65085;46.718;20.136;2022-11-15T04:00:31;101176.41;;;4.89;88.72
76166;BME280;65085;46.718;20.136;2022-11-15T04:03:52;101180.34;;;4.92;88.87
76166;BME280;65085;46.718;20.136;2022-11-15T04:07:13;101180.06;;;4.59;90.93
76166;BME280;65085;46.718;20.136;2022-11-15T04:10:37;101174.34;;;4.78;89.83
76166;BME280;65085;46.718;20.136;2022-11-15T04:14:00;101172.94;;;4.80;89.71
76166;BME280;65085;46.718;20.136;2022-11-15T04:17:21;101172.75;;;4.94;89.34
76166;BME280;65085;46.718;20.136;2022-11-15T04:20:44;101163.25;;;4.88;89.23
76166;BME280;65085;46.718;20.136;2022-11-15T04:24:24;101157.53;;;4.98;89.35
76166;BME280;65085;46.718;20.136;2022-11-15T04:27:45;101149.00;;;4.79;89.74
76166;BME280;65085;46.718;20.136;2022-11-15T04:31:07;101149.50;;;4.72;90.39
76166;BME280;65085;46.718;20.136;2022-11-15T04:34:28;101142.06;;;4.52;90.85
76166;BME280;65085;46.718;20.136;2022-11-15T04:37:49;101148.41;;;4.48;91.04
76166;BME280;65085;46.718;20.136;2022-11-15T04:41:10;101146.84;;;4.55;91.00
76166;BME280;65085;46.718;20.136;2022-11-15T04:44:31;101145.88;;;4.60;90.55
76166;BME280;65085;46.718;20.136;2022-11-15T04:47:53;101144.44;;;4.54;90.60
76166;BME280;65085;46.718;20.136;2022-11-15T04:51:15;101144.13;;;4.38;91.45
76166;BME280;65085;46.718;20.136;2022-11-15T04:54:36;101131.00;;;4.54;91.29
76166;BME280;65085;46.718;20.136;2022-11-15T04:57:58;101137.78;;;4.68;90.68
76166;BME280;65085;46.718;20.136;2022-11-15T05:01:22;101129.56;;;4.65;90.69
76166;BME280;65085;46.718;20.136;2022-11-15T05:04:45;101127.47;;;4.87;90.12
76166;BME280;65085;46.718;20.136;2022-11-15T05:08:06;101116.38;;;4.89;89.73
76166;BME280;65085;46.718;20.136;2022-11-15T05:11:27;101123.84;;;4.92;89.35
76166;BME280;65085;46.718;20.136;2022-11-15T05:14:48;101123.72;;;4.71;89.44
76166;BME280;65085;46.718;20.136;2022-11-15T05:18:10;101116.44;;;4.63;89.90
76166;BME280;65085;46.718;20.136;2022-11-15T05:21:33;101122.31;;;4.31;91.00
76166;BME280;65085;46.718;20.136;2022-11-15T05:24:54;101115.94;;;4.19;91.91
76166;BME280;65085;46.718;20.136;2022-11-15T05:28:15;101116.13;;;4.31;91.71
76166;BME280;65085;46.718;20.136;2022-11-15T05:31:39;101115.34;;;4.39;91.64
76166;BME280;65085;46.718;20.136;2022-11-15T05:35:00;101121.81;;;4.63;90.11
76166;BME280;65085;46.718;20.136;2022-11-15T05:38:23;101121.53;;;4.39;91.01
76166;BME280;65085;46.718;20.136;2022-11-15T05:41:46;101123.72;;;4.46;90.62
76166;BME280;65085;46.718;20.136;2022-11-15T05:45:09;101124.03;;;4.36;90.96
76166;BME280;65085;46.718;20.136;2022-11-15T05:48:30;101131.00;;;4.20;91.41
76166;BME280;65085;46.718;20.136;2022-11-15T05:51:52;101138.91;;;4.25;91.18
76166;BME280;65085;46.718;20.136;2022-11-15T05:55:15;101135.88;;;4.35;91.13
76166;BME280;65085;46.718;20.136;2022-11-15T05:58:37;101136.38;;;4.45;90.67
76166;BME280;65085;46.718;20.136;2022-11-15T06:01:58;101135.91;;;4.26;91.38
76166;BME280;65085;46.718;20.136;2022-11-15T06:05:20;101131.63;;;4.51;90.99
76166;BME280;65085;46.718;20.136;2022-11-15T06:08:41;101136.69;;;4.52;90.98
76166;BME280;65085;46.718;20.136;2022-11-15T06:12:03;101139.19;;;4.83;89.70
76166;BME280;65085;46.718;20.136;2022-11-15T06:15:27;101134.13;;;4.81;89.41
76166;BME280;65085;46.718;20.136;2022-11-15T06:18:48;101135.09;;;4.51;90.17
76166;BME280;65085;46.718;20.136;2022-11-15T06:22:10;101129.41;;;4.53;90.36
76166;BME280;65085;46.718;20.136;2022-11-15T06:25:31;101133.03;;;4.82;89.43
76166;BME280;65085;46.718;20.136;2022-11-15T06:28:53;101134.66;;;5.21;88.72
76166;BME280;65085;46.718;20.136;2022-11-15T06:32:14;101134.56;;;5.09;89.12
76166;BME280;65085;46.718;20.136;2022-11-15T06:35:36;101124.69;;;5.21;88.62
76166;BME280;65085;46.718;20.136;2022-11-15T06:38:57;101128.66;;;5.24;88.61
76166;BME280;65085;46.718;20.136;2022-11-15T06:42:18;101132.00;;;5.12;89.15
76166;BME280;65085;46.718;20.136;2022-11-15T06:45:40;101137.94;;;5.43;87.75
76166;BME280;65085;46.718;20.136;2022-11-15T06:49:01;101133.53;;;5.22;88.11
76166;BME280;65085;46.718;20.136;2022-11-15T06:52:49;101133.69;;;5.25;88.70
76166;BME280;65085;46.718;20.136;2022-11-15T06:56:22;101140.03;;;5.29;88.97
76166;BME280;65085;46.718;20.136;2022-11-15T06:59:52;101137.78;;;5.40;87.47
76166;BME280;65085;46.718;20.136;2022-11-15T07:03:42;101134.31;;;5.31;88.47
76166;BME280;65085;46.718;20.136;2022-11-15T07:07:03;101141.97;;;5.58;87.50
76166;BME280;65085;46.718;20.136;2022-11-15T07:10:26;101128.09;;;5.39;88.84
76166;BME280;65085;46.718;20.136;2022-11-15T07:13:46;101135.44;;;5.67;87.62
76166;BME280;65085;46.718;20.136;2022-11-15T07:17:08;101129.53;;;5.74;88.09
76166;BME280;65085;46.718;20.136;2022-11-15T07:20:31;101124.22;;;5.57;87.27
76166;BME280;65085;46.718;20.136;2022-11-15T07:23:54;101126.47;;;5.84;86.73
76166;BME280;65085;46.718;20.136;2022-11-15T07:27:15;101112.38;;;6.07;86.19
76166;BME280;65085;46.718;20.136;2022-11-15T07:30:37;101111.63;;;5.98;86.97
76166;BME280;65085;46.718;20.136;2022-11-15T07:34:07;101116.78;;;5.91;87.63
76166;BME280;65085;46.718;20.136;2022-11-15T07:37:29;101107.31;;;6.06;87.64
76166;BME280;65085;46.718;20.136;2022-11-15T07:40:56;101092.84;;;6.31;87.01
76166;BME280;65085;46.718;20.136;2022-11-15T07:44:18;101086.75;;;6.34;87.36
76166;BME280;65085;46.718;20.136;2022-11-15T07:47:39;101092.16;;;6.34;87.66
76166;BME280;65085;46.718;20.136;2022-11-15T07:51:02;101083.28;;;6.33;87.89
76166;BME280;65085;46.718;20.136;2022-11-15T07:54:28;101082.84;;;6.64;85.69
76166;BME280;65085;46.718;20.136;2022-11-15T07:57:49;101083.72;;;6.88;85.26
76166;BME280;65085;46.718;20.136;2022-11-15T08:01:10;101088.34;;;6.99;84.83
76166;BME280;65085;46.718;20.136;2022-11-15T08:04:32;101090.09;;;7.28;83.89
76166;BME280;65085;46.718;20.136;2022-11-15T08:07:54;101089.28;;;7.15;84.94
76166;BME280;65085;46.718;20.136;2022-11-15T08:11:17;101090.44;;;6.94;85.64
76166;BME280;65085;46.718;20.136;2022-11-15T08:14:39;101084.53;;;7.00;85.92
76166;BME280;65085;46.718;20.136;2022-11-15T08:18:02;101081.78;;;6.88;86.50
76166;BME280;65085;46.718;20.136;2022-11-15T08:21:23;101075.44;;;6.73;87.11
76166;BME280;65085;46.718;20.136;2022-11-15T08:24:45;101082.22;;;6.79;87.35
76166;BME280;65085;46.718;20.136;2022-11-15T08:28:10;101086.66;;;7.07;86.71
76166;BME280;65085;46.718;20.136;2022-11-15T08:31:31;101087.34;;;7.04;85.49
76166;BME280;65085;46.718;20.136;2022-11-15T08:34:53;101092.16;;;6.98;86.29
76166;BME280;65085;46.718;20.136;2022-11-15T08:38:14;101089.19;;;7.36;84.67
76166;BME280;65085;46.718;20.136;2022-11-15T08:41:37;101085.78;;;7.15;85.56
76166;BME280;65085;46.718;20.136;2022-11-15T08:45:00;101087.47;;;7.19;85.91
76166;BME280;65085;46.718;20.136;2022-11-15T08:48:21;101071.81;;;7.25;85.58
76166;BME280;65085;46.718;20.136;2022-11-15T08:51:42;101073.50;;;7.17;86.43
76166;BME280;65085;46.718;20.136;2022-11-15T08:55:04;101073.38;;;7.26;86.73
76166;BME280;65085;46.718;20.136;2022-11-15T08:58:25;101082.81;;;6.96;87.66
76166;BME280;65085;46.718;20.136;2022-11-15T09:01:48;101084.75;;;7.19;87.02
76166;BME280;65085;46.718;20.136;2022-11-15T09:05:09;101069.59;;;7.51;85.73
76166;BME280;65085;46.718;20.136;2022-11-15T09:08:30;101065.88;;;7.55;85.76
76166;BME280;65085;46.718;20.136;2022-11-15T09:12:08;101060.53;;;7.71;85.16
76166;BME280;65085;46.718;20.136;2022-11-15T09:15:30;101055.34;;;7.78;84.28
76166;BME280;65085;46.718;20.136;2022-11-15T09:18:53;101052.75;;;7.69;84.99
76166;BME280;65085;46.718;20.136;2022-11-15T09:22:15;101052.19;;;7.88;85.01
76166;BME280;65085;46.718;20.136;2022-11-15T09:25:36;101052.16;;;8.00;85.13
76166;BME280;65085;46.718;20.136;2022-11-15T09:28:57;101043.50;;;7.82;84.48
76166;BME280;65085;46.718;20.136;2022-11-15T09:32:19;101045.03;;;8.07;83.72
76166;BME280;65085;46.718;20.136;2022-11-15T09:35:41;101039.94;;;8.06;83.55
76166;BME280;65085;46.718;20.136;2022-11-15T09:39:03;101037.91;;;8.15;83.03
76166;BME280;65085;46.718;20.136;2022-11-15T09:42:45;101040.34;;;8.32;83.56
76166;BME280;65085;46.718;20.136;2022-11-15T09:46:13;101031.28;;;8.40;82.76
76166;BME280;65085;46.718;20.136;2022-11-15T09:49:36;101037.56;;;8.44;83.87
76166;BME280;65085;46.718;20.136;2022-11-15T09:53:01;101014.09;;;8.48;82.35
76166;BME280;65085;46.718;20.136;2022-11-15T09:56:12;101019.16;;;8.49;82.79
76166;BME280;65085;46.718;20.136;2022-11-15T09:59:25;101011.94;;;8.53;83.59
76166;BME280;65085;46.718;20.136;2022-11-15T10:02:44;101016.22;;;8.54;82.25
76166;BME280;65085;46.718;20.136;2022-11-15T10:05:54;101013.75;;;8.49;81.87
76166;BME280;65085;46.718;20.136;2022-11-15T10:09:06;101003.09;;;8.41;83.05
76166;BME280;65085;46.718;20.136;2022-11-15T10:12:13;100993.59;;;8.47;83.24
76166;BME280;65085;46.718;20.136;2022-11-15T10:15:17;100994.41;;;8.63;82.34
76166;BME280;65085;46.718;20.136;2022-11-15T10:18:30;100987.13;;;8.67;82.26
76166;BME280;65085;46.718;20.136;2022-11-15T10:21:42;100982.34;;;8.60;82.76
76166;BME280;65085;46.718;20.136;2022-11-15T10:25:00;100978.63;;;8.53;83.02
76166;BME280;65085;46.718;20.136;2022-11-15T10:28:11;100966.66;;;8.38;85.21
76166;BME280;65085;46.718;20.136;2022-11-15T10:31:25;100976.97;;;8.48;84.61
76166;BME280;65085;46.718;20.136;2022-11-15T10:34:35;100972.44;;;8.52;83.57
76166;BME280;65085;46.718;20.136;2022-11-15T10:37:40;100961.00;;;8.59;84.13
76166;BME280;65085;46.718;20.136;2022-11-15T10:40:47;100967.03;;;8.68;83.97
76166;BME280;65085;46.718;20.136;2022-11-15T10:47:25;100954.53;;;8.63;84.31
76166;BME280;65085;46.718;20.136;2022-11-15T10:50:32;100950.03;;;8.67;84.21
76166;BME280;65085;46.718;20.136;2022-11-15T10:53:43;100950.59;;;8.61;84.24
76166;BME280;65085;46.718;20.136;2022-11-15T10:56:50;100949.94;;;8.64;85.35
76166;BME280;65085;46.718;20.136;2022-11-15T10:59:55;100943.97;;;8.74;84.13
76166;BME280;65085;46.718;20.136;2022-11-15T11:03:02;100933.03;;;8.86;85.80
76166;BME280;65085;46.718;20.136;2022-11-15T11:06:08;100940.09;;;9.06;84.67
76166;BME280;65085;46.718;20.136;2022-11-15T11:09:22;100941.34;;;9.08;84.87
76166;BME280;65085;46.718;20.136;2022-11-15T11:12:31;100930.09;;;9.25;84.64
76166;BME280;65085;46.718;20.136;2022-11-15T11:15:34;100926.50;;;9.37;83.49
76166;BME280;65085;46.718;20.136;2022-11-15T11:18:41;100924.38;;;9.30;84.22
76166;BME280;65085;46.718;20.136;2022-11-15T11:21:51;100927.25;;;9.37;82.59
76166;BME280;65085;46.718;20.136;2022-11-15T11:25:04;100914.97;;;9.24;84.26
76166;BME280;65085;46.718;20.136;2022-11-15T11:28:28;100902.75;;;9.15;84.02
76166;BME280;65085;46.718;20.136;2022-11-15T11:31:45;100905.31;;;9.08;82.85
76166;BME280;65085;46.718;20.136;2022-11-15T11:34:58;100911.88;;;9.07;84.66
76166;BME280;65085;46.718;20.136;2022-11-15T11:38:17;100914.41;;;9.15;84.45
76166;BME280;65085;46.718;20.136;2022-11-15T11:41:43;100907.38;;;9.14;84.22
76166;BME280;65085;46.718;20.136;2022-11-15T11:44:58;100902.91;;;9.22;83.14
76166;BME280;65085;46.718;20.136;2022-11-15T11:48:12;100892.50;;;9.24;83.00
76166;BME280;65085;46.718;20.136;2022-11-15T11:51:18;100888.16;;;9.38;83.27
76166;BME280;65085;46.718;20.136;2022-11-15T11:54:27;100892.72;;;9.53;82.25
76166;BME280;65085;46.718;20.136;2022-11-15T11:57:39;100883.38;;;9.89;81.38
76166;BME280;65085;46.718;20.136;2022-11-15T12:01:04;100880.34;;;10.13;82.07
76166;BME280;65085;46.718;20.136;2022-11-15T12:04:17;100875.03;;;10.39;78.69
76166;BME280;65085;46.718;20.136;2022-11-15T12:07:23;100868.59;;;10.50;78.94
76166;BME280;65085;46.718;20.136;2022-11-15T12:10:30;100864.00;;;10.54;79.42
76166;BME280;65085;46.718;20.136;2022-11-15T12:13:33;100861.72;;;10.56;78.77
76166;BME280;65085;46.718;20.136;2022-11-15T12:16:42;100852.00;;;10.55;79.66
76166;BME280;65085;46.718;20.136;2022-11-15T12:19:45;100855.44;;;10.30;79.54
76166;BME280;65085;46.718;20.136;2022-11-15T12:22:53;100849.78;;;10.38;79.05
76166;BME280;65085;46.718;20.136;2022-11-15T12:26:01;100849.53;;;10.24;79.97
76166;BME280;65085;46.718;20.136;2022-11-15T12:29:11;100835.06;;;10.39;81.48
76166;BME280;65085;46.718;20.136;2022-11-15T12:32:26;100834.00;;;10.47;80.56
76166;BME280;65085;46.718;20.136;2022-11-15T12:35:34;100830.03;;;10.41;80.09
76166;BME280;65085;46.718;20.136;2022-11-15T12:38:54;100820.59;;;10.32;80.35
76166;BME280;65085;46.718;20.136;2022-11-15T12:45:33;100813.50;;;10.50;79.89
76166;BME280;65085;46.718;20.136;2022-11-15T12:48:50;100814.81;;;10.59;80.13
76166;BME280;65085;46.718;20.136;2022-11-15T12:52:08;100813.72;;;10.63;80.81
76166;BME280;65085;46.718;20.136;2022-11-15T12:55:32;100797.13;;;10.72;80.67
76166;BME280;65085;46.718;20.136;2022-11-15T12:58:42;100804.50;;;10.97;80.25
76166;BME280;65085;46.718;20.136;2022-11-15T13:01:59;100791.66;;;10.98;78.54
76166;BME280;65085;46.718;20.136;2022-11-15T13:08:52;100774.63;;;11.01;78.78
76166;BME280;65085;46.718;20.136;2022-11-15T13:11:56;100766.47;;;11.01;79.60
76166;BME280;65085;46.718;20.136;2022-11-15T13:14:59;100759.38;;;10.93;80.16
76166;BME280;65085;46.718;20.136;2022-11-15T13:18:37;100767.84;;;11.17;78.77
76166;BME280;65085;46.718;20.136;2022-11-15T13:21:49;100772.81;;;11.12;79.34
76166;BME280;65085;46.718;20.136;2022-11-15T13:25:20;100772.22;;;10.96;79.19
76166;BME280;65085;46.718;20.136;2022-11-15T13:28:31;100768.69;;;10.92;79.92
76166;BME280;65085;46.718;20.136;2022-11-15T13:31:36;100770.63;;;10.91;79.17
76166;BME280;65085;46.718;20.136;2022-11-15T13:34:43;100765.09;;;10.84;80.42
76166;BME280;65085;46.718;20.136;2022-11-15T13:37:55;100779.91;;;10.61;81.50
76166;BME280;65085;46.718;20.136;2022-11-15T13:41:11;100785.19;;;10.51;81.87
76166;BME280;65085;46.718;20.136;2022-11-15T13:44:19;100775.94;;;10.55;82.23
76166;BME280;65085;46.718;20.136;2022-11-15T13:47:26;100774.72;;;10.52;82.74
76166;BME280;65085;46.718;20.136;2022-11-15T13:50:33;100763.16;;;10.56;81.95
76166;BME280;65085;46.718;20.136;2022-11-15T13:53:40;100765.38;;;10.50;82.12
76166;BME280;65085;46.718;20.136;2022-11-15T13:56:48;100768.41;;;10.45;82.34
76166;BME280;65085;46.718;20.136;2022-11-15T13:59:56;100767.84;;;10.33;83.76
76166;BME280;65085;46.718;20.136;2022-11-15T14:03:07;100758.78;;;10.25;84.17
76166;BME280;65085;46.718;20.136;2022-11-15T14:06:12;100761.19;;;10.30;84.33
76166;BME280;65085;46.718;20.136;2022-11-15T14:09:33;100756.81;;;10.48;83.56
76166;BME280;65085;46.718;20.136;2022-11-15T14:12:38;100745.84;;;10.41;84.33
76166;BME280;65085;46.718;20.136;2022-11-15T14:15:41;100741.84;;;10.32;84.83
76166;BME280;65085;46.718;20.136;2022-11-15T14:18:48;100735.59;;;10.31;84.83
76166;BME280;65085;46.718;20.136;2022-11-15T14:22:12;100722.94;;;10.39;83.59
76166;BME280;65085;46.718;20.136;2022-11-15T14:25:18;100704.53;;;10.29;83.69
76166;BME280;65085;46.718;20.136;2022-11-15T14:28:31;100711.97;;;10.32;84.03
76166;BME280;65085;46.718;20.136;2022-11-15T14:31:37;100710.41;;;10.31;84.08
76166;BME280;65085;46.718;20.136;2022-11-15T14:34:45;100706.19;;;10.37;83.93
76166;BME280;65085;46.718;20.136;2022-11-15T14:37:48;100698.75;;;10.30;84.65
76166;BME280;65085;46.718;20.136;2022-11-15T14:40:51;100699.56;;;10.34;83.88
76166;BME280;65085;46.718;20.136;2022-11-15T14:43:55;100696.03;;;10.30;84.91
76166;BME280;65085;46.718;20.136;2022-11-15T14:46:58;100693.06;;;10.13;86.27
76166;BME280;65085;46.718;20.136;2022-11-15T14:50:00;100696.03;;;10.04;87.01
76166;BME280;65085;46.718;20.136;2022-11-15T14:53:03;100673.81;;;9.99;86.76
76166;BME280;65085;46.718;20.136;2022-11-15T14:56:06;100674.19;;;9.97;87.09
76166;BME280;65085;46.718;20.136;2022-11-15T14:59:10;100677.94;;;9.89;87.72
76166;BME280;65085;46.718;20.136;2022-11-15T15:02:18;100671.47;;;9.97;87.35
76166;BME280;65085;46.718;20.136;2022-11-15T15:05:23;100668.50;;;10.06;86.95
76166;BME280;65085;46.718;20.136;2022-11-15T15:08:26;100659.34;;;9.91;87.65
76166;BME280;65085;46.718;20.136;2022-11-15T15:11:30;100658.13;;;9.63;88.80
76166;BME280;65085;46.718;20.136;2022-11-15T15:14:34;100664.50;;;9.74;88.83
76166;BME280;65085;46.718;20.136;2022-11-15T15:17:37;100657.09;;;9.97;87.55
76166;BME280;65085;46.718;20.136;2022-11-15T15:20:41;100649.69;;;9.94;87.50
76166;BME280;65085;46.718;20.136;2022-11-15T15:23:45;100658.81;;;10.05;87.26
76166;BME280;65085;46.718;20.136;2022-11-15T15:26:47;100657.72;;;10.09;87.08
76166;BME280;65085;46.718;20.136;2022-11-15T15:29:51;100671.88;;;9.99;87.79
76166;BME280;65085;46.718;20.136;2022-11-15T15:32:54;100672.59;;;10.19;86.11
76166;BME280;65085;46.718;20.136;2022-11-15T15:35:57;100664.56;;;10.26;85.35
76166;BME280;65085;46.718;20.136;2022-11-15T15:38:59;100669.09;;;10.18;86.06
76166;BME280;65085;46.718;20.136;2022-11-15T15:42:02;100672.28;;;10.24;85.47
76166;BME280;65085;46.718;20.136;2022-11-15T15:45:09;100655.31;;;10.30;85.18
76166;BME280;65085;46.718;20.136;2022-11-15T15:48:13;100658.44;;;10.32;84.81
76166;BME280;65085;46.718;20.136;2022-11-15T15:51:16;100657.16;;;10.26;85.10
76166;BME280;65085;46.718;20.136;2022-11-15T15:54:22;100661.78;;;10.22;85.40
76166;BME280;65085;46.718;20.136;2022-11-15T15:57:24;100652.44;;;10.20;85.34
76166;BME280;65085;46.718;20.136;2022-11-15T16:00:30;100653.69;;;10.26;85.16
76166;BME280;65085;46.718;20.136;2022-11-15T16:03:35;100659.44;;;10.21;85.47
76166;BME280;65085;46.718;20.136;2022-11-15T16:06:40;100663.09;;;10.32;85.24
76166;BME280;65085;46.718;20.136;2022-11-15T16:09:46;100663.44;;;10.30;85.36
76166;BME280;65085;46.718;20.136;2022-11-15T16:13:04;100664.75;;;10.40;85.19
76166;BME280;65085;46.718;20.136;2022-11-15T16:16:12;100653.78;;;10.33;84.99
76166;BME280;65085;46.718;20.136;2022-11-15T16:19:15;100632.66;;;10.19;85.93
76166;BME280;65085;46.718;20.136;2022-11-15T16:22:18;100637.75;;;10.24;85.63
76166;BME280;65085;46.718;20.136;2022-11-15T16:25:20;100634.34;;;10.27;85.90
76166;BME280;65085;46.718;20.136;2022-11-15T16:28:26;100634.78;;;10.33;85.26
76166;BME280;65085;46.718;20.136;2022-11-15T16:31:30;100625.13;;;10.35;85.34
76166;BME280;65085;46.718;20.136;2022-11-15T16:34:32;100645.66;;;10.33;85.26
76166;BME280;65085;46.718;20.136;2022-11-15T16:37:43;100646.81;;;10.32;85.73
76166;BME280;65085;46.718;20.136;2022-11-15T16:40:48;100643.94;;;10.21;85.95
76166;BME280;65085;46.718;20.136;2022-11-15T16:43:51;100634.53;;;10.15;86.91
76166;BME280;65085;46.718;20.136;2022-11-15T16:46:55;100633.44;;;10.20;86.83
76166;BME280;65085;46.718;20.136;2022-11-15T16:49:57;100625.78;;;10.29;85.63
76166;BME280;65085;46.718;20.136;2022-11-15T16:53:00;100627.84;;;10.35;85.47
76166;BME280;65085;46.718;20.136;2022-11-15T16:56:16;100630.50;;;10.32;85.96
76166;BME280;65085;46.718;20.136;2022-11-15T16:59:20;100632.72;;;10.23;86.04
76166;BME280;65085;46.718;20.136;2022-11-15T17:02:24;100628.47;;;10.25;86.19
76166;BME280;65085;46.718;20.136;2022-11-15T17:05:28;100620.31;;;10.25;86.30
76166;BME280;65085;46.718;20.136;2022-11-15T17:08:30;100611.34;;;10.21;86.39
76166;BME280;65085;46.718;20.136;2022-11-15T17:11:33;100607.69;;;10.10;87.28
76166;BME280;65085;46.718;20.136;2022-11-15T17:14:36;100610.56;;;10.21;86.79
76166;BME280;65085;46.718;20.136;2022-11-15T17:17:40;100606.44;;;10.30;86.08
76166;BME280;65085;46.718;20.136;2022-11-15T17:20:43;100604.88;;;10.29;86.23
76166;BME280;65085;46.718;20.136;2022-11-15T17:23:46;100614.25;;;10.35;86.12